createdAt,value
2022-09-11T03:15:49.187Z,11.20
2022-09-11T03:18:23.142Z,11.20
2022-09-11T03:20:54.953Z,11.20
2022-09-11T03:23:23.473Z,11.30
2022-09-11T03:25:52.813Z,11.20
2022-09-11T03:28:33.199Z,11.20
2022-09-11T03:31:09.714Z,11.30
2022-09-11T03:33:43.961Z,11.20
2022-09-11T03:36:19.540Z,11.20
2022-09-11T03:38:53.020Z,11.20
2022-09-11T03:41:23.631Z,11.20
2022-09-11T03:43:53.470Z,11.20
2022-09-11T03:46:35.983Z,11.20
2022-09-11T03:49:08.652Z,11.20
2022-09-11T03:51:41.718Z,11.20
2022-09-11T03:54:12.472Z,11.30
2022-09-11T03:56:44.315Z,11.20
2022-09-11T03:59:26.710Z,11.30
2022-09-11T04:02:02.762Z,11.20
2022-09-11T04:04:38.841Z,11.20
2022-09-11T04:07:09.283Z,11.20
2022-09-11T04:09:44.615Z,11.10
2022-09-11T04:12:23.239Z,11.10
2022-09-11T04:14:53.086Z,11.20
2022-09-11T04:17:28.425Z,11.10
2022-09-11T04:20:02.626Z,11.20
2022-09-11T04:22:34.116Z,11.10
2022-09-11T04:25:05.431Z,10.90
2022-09-11T04:27:36.851Z,11.00
2022-09-11T04:30:11.757Z,11.00
2022-09-11T04:32:42.823Z,11.10
2022-09-11T04:35:20.455Z,11.10
2022-09-11T04:38:01.736Z,11.00
2022-09-11T04:40:41.122Z,11.00
2022-09-11T04:43:12.079Z,11.10
2022-09-11T04:45:44.038Z,11.00
2022-09-11T04:48:18.082Z,11.10
2022-09-11T04:51:02.171Z,11.00
2022-09-11T04:53:34.246Z,10.90
2022-09-11T04:56:08.633Z,10.90
2022-09-11T04:58:44.040Z,11.00
2022-09-11T05:01:21.847Z,11.00
2022-09-11T05:03:56.368Z,11.10
2022-09-11T05:06:37.788Z,11.00
2022-09-11T05:09:19.288Z,11.00
2022-09-11T05:11:51.764Z,10.90
2022-09-11T05:14:23.954Z,10.90
2022-09-11T05:17:01.337Z,11.00
2022-09-11T05:19:33.994Z,11.00
2022-09-11T05:22:02.527Z,11.00
2022-09-11T05:24:45.310Z,11.00
2022-09-11T05:27:20.026Z,11.00
2022-09-11T05:29:51.485Z,11.00
2022-09-11T05:32:21.971Z,11.00
2022-09-11T05:38:51.277Z,11.00
2022-09-11T05:41:27.795Z,10.90
2022-09-11T05:44:02.364Z,10.90
2022-09-11T05:46:35.052Z,11.00
2022-09-11T05:49:08.076Z,11.00
2022-09-11T05:52:00.691Z,10.90
2022-09-11T05:54:43.060Z,10.70
2022-09-11T05:57:30.286Z,10.90
2022-09-11T06:00:05.141Z,10.80
2022-09-11T06:02:38.702Z,10.80
2022-09-11T06:05:19.681Z,10.80
2022-09-11T06:07:52.072Z,10.90
2022-09-11T06:10:21.872Z,11.00
2022-09-11T06:12:50.504Z,11.00
2022-09-11T06:15:42.852Z,10.90
2022-09-11T06:18:10.456Z,10.90
2022-09-11T06:20:41.975Z,11.00
2022-09-11T06:23:28.699Z,11.00
2022-09-11T06:26:04.643Z,11.00
2022-09-11T06:28:38.871Z,11.00
2022-09-11T06:31:13.789Z,11.00
2022-09-11T06:33:48.960Z,11.00
2022-09-11T06:36:21.561Z,11.10
2022-09-11T06:39:06.092Z,11.00
2022-09-11T06:42:16.847Z,11.00
2022-09-11T06:45:00.644Z,11.00
2022-09-11T06:47:46.913Z,11.00
2022-09-11T06:51:14.009Z,11.10
2022-09-11T06:57:41.811Z,11.10
2022-09-11T07:00:23.478Z,10.90
2022-09-11T07:03:00.705Z,11.00
2022-09-11T07:06:01.036Z,11.10
2022-09-11T07:08:54.989Z,11.00
2022-09-11T07:15:08.850Z,11.10
2022-09-11T07:17:57.326Z,10.90
2022-09-11T07:20:45.384Z,11.20
2022-09-11T07:28:03.283Z,11.00
2022-09-11T07:31:34.633Z,10.90
2022-09-11T07:35:15.880Z,11.00
2022-09-11T07:38:40.130Z,11.10
2022-09-11T07:41:18.337Z,11.00
2022-09-11T07:47:42.805Z,11.00
2022-09-11T07:50:37.247Z,11.00
2022-09-11T07:53:28.698Z,10.90
2022-09-11T07:56:11.760Z,11.10
2022-09-11T07:58:47.317Z,11.20
2022-09-11T08:01:43.644Z,10.90
2022-09-11T08:04:17.927Z,11.10
2022-09-11T08:06:48.481Z,11.10
2022-09-11T08:09:59.691Z,11.00
2022-09-11T08:12:56.871Z,11.00
2022-09-11T08:15:50.103Z,11.10
2022-09-11T08:18:51.961Z,11.00
2022-09-11T08:21:34.212Z,11.00
2022-09-11T08:24:06.302Z,11.10
2022-09-11T08:29:49.368Z,11.10
2022-09-11T08:32:46.176Z,11.00
2022-09-11T08:44:56.847Z,10.80
2022-09-11T08:48:03.076Z,11.00
2022-09-11T08:50:45.086Z,11.00
2022-09-11T08:53:28.617Z,10.90
2022-09-11T08:56:08.973Z,10.90
2022-09-11T08:58:50.138Z,11.00
2022-09-11T09:01:50.063Z,11.00
2022-09-11T09:04:49.172Z,10.90
2022-09-11T09:07:30.977Z,10.90
2022-09-11T09:10:35.997Z,10.90
2022-09-11T09:13:55.846Z,11.00
2022-09-11T09:17:30.306Z,11.00
2022-09-11T09:20:47.871Z,11.00
2022-09-11T09:23:44.809Z,10.90
2022-09-11T09:26:38.635Z,10.80
2022-09-11T09:30:14.746Z,11.00
2022-09-11T09:33:30.964Z,10.80
2022-09-11T09:36:25.770Z,10.70
2022-09-11T09:38:59.554Z,10.80
2022-09-11T09:42:17.396Z,10.70
2022-09-11T09:45:06.753Z,10.70
2022-09-11T09:47:59.204Z,10.80
2022-09-11T09:51:01.061Z,10.60
2022-09-11T09:53:53.270Z,10.70
2022-09-11T09:56:46.826Z,10.90
2022-09-11T09:59:35.810Z,10.70
2022-09-11T10:02:17.483Z,10.70
2022-09-11T10:04:54.114Z,10.80
2022-09-11T10:07:39.894Z,10.80
2022-09-11T10:10:49.095Z,10.80
2022-09-11T10:13:53.519Z,10.70
2022-09-11T10:16:28.054Z,10.70
2022-09-11T10:19:02.026Z,10.80
2022-09-11T10:21:37.784Z,10.70
2022-09-11T10:24:31.123Z,10.70
2022-09-11T10:27:07.363Z,10.80
2022-09-11T10:29:38.529Z,10.80
2022-09-11T10:32:27.766Z,10.80
2022-09-11T10:35:12.644Z,10.80
2022-09-11T10:37:45.655Z,10.80
2022-09-11T10:40:39.687Z,10.90
2022-09-11T10:43:26.814Z,10.80
2022-09-11T10:46:12.985Z,11.20
2022-09-11T10:48:47.105Z,11.00
2022-09-11T10:51:18.039Z,11.10
2022-09-11T10:54:02.793Z,11.30
2022-09-11T10:56:41.156Z,11.10
2022-09-11T10:59:24.963Z,11.30
2022-09-11T11:01:56.315Z,11.50
2022-09-11T11:04:36.022Z,11.50
2022-09-11T11:07:17.215Z,11.60
2022-09-11T11:10:01.517Z,11.70
2022-09-11T11:12:55.575Z,11.70
2022-09-11T11:15:53.054Z,11.70
2022-09-11T11:18:35.284Z,11.80
2022-09-11T11:21:23.413Z,11.80
2022-09-11T11:24:15.949Z,11.80
2022-09-11T11:27:05.778Z,11.90
2022-09-11T11:29:56.247Z,11.80
2022-09-11T11:32:51.814Z,11.90
2022-09-11T11:35:27.131Z,11.90
2022-09-11T11:38:04.744Z,12.00
2022-09-11T11:40:42.998Z,12.30
2022-09-11T11:43:13.402Z,12.20
2022-09-11T11:45:46.742Z,12.20
2022-09-11T11:48:31.621Z,12.30
2022-09-11T11:51:06.710Z,12.40
2022-09-11T11:53:45.539Z,12.40
2022-09-11T11:56:28.950Z,12.50
2022-09-11T11:59:23.658Z,12.60
2022-09-11T12:02:06.746Z,12.60
2022-09-11T12:04:54.284Z,12.80
2022-09-11T12:07:29.507Z,12.80
2022-09-11T12:10:02.319Z,12.90
2022-09-11T12:12:36.661Z,12.90
2022-09-11T12:15:10.703Z,12.90
2022-09-11T12:18:20.150Z,13.00
2022-09-11T12:21:46.018Z,13.10
2022-09-11T12:24:21.542Z,13.10
2022-09-11T12:27:44.551Z,13.20
2022-09-11T12:30:25.154Z,13.30
2022-09-11T12:33:01.357Z,13.30
2022-09-11T12:35:50.958Z,13.40
2022-09-11T12:38:28.468Z,13.40
2022-09-11T12:41:17.287Z,13.50
2022-09-11T12:43:58.846Z,13.40
2022-09-11T12:47:18.693Z,13.30
2022-09-11T12:49:56.515Z,13.50
2022-09-11T12:52:42.948Z,13.50
2022-09-11T12:55:31.310Z,13.60
2022-09-11T12:58:08.342Z,13.60
2022-09-11T13:00:41.962Z,13.60
2022-09-11T13:03:19.937Z,13.70
2022-09-11T13:05:55.322Z,13.80
2022-09-11T13:08:27.257Z,13.70
2022-09-11T13:11:15.554Z,13.80
2022-09-11T13:13:46.989Z,13.80
2022-09-11T13:16:25.621Z,13.80
2022-09-11T13:19:00.309Z,13.80
2022-09-11T13:21:28.507Z,13.90
2022-09-11T13:24:01.436Z,14.00
2022-09-11T13:26:31.574Z,13.80
2022-09-11T13:29:02.390Z,13.90
2022-09-11T13:31:35.724Z,13.90
2022-09-11T13:34:07.477Z,13.90
2022-09-11T13:36:37.535Z,13.90
2022-09-11T13:39:06.644Z,13.90
2022-09-11T13:41:39.778Z,13.80
2022-09-11T13:44:14.256Z,13.90
2022-09-11T13:46:51.914Z,13.80
2022-09-11T13:49:37.201Z,13.90
2022-09-11T13:52:06.555Z,14.00
2022-09-11T13:54:38.851Z,13.90
2022-09-11T13:57:16.474Z,14.00
2022-09-11T13:59:52.072Z,13.90
2022-09-11T14:02:32.302Z,14.00
2022-09-11T14:05:08.712Z,13.90
2022-09-11T14:07:45.470Z,13.90
2022-09-11T14:10:20.880Z,14.00
2022-09-11T14:12:54.012Z,13.80
2022-09-11T14:15:32.659Z,13.80
2022-09-11T14:18:03.895Z,13.80
2022-09-11T14:20:34.119Z,13.80
2022-09-11T14:23:06.517Z,13.80
2022-09-11T14:25:35.509Z,13.70
2022-09-11T14:28:06.242Z,13.70
2022-09-11T14:30:38.197Z,13.70
2022-09-11T14:33:31.347Z,13.60
2022-09-11T14:36:07.834Z,13.60
2022-09-11T14:38:36.597Z,13.60
2022-09-11T14:41:07.939Z,13.70
2022-09-11T14:43:38.724Z,13.70
2022-09-11T14:46:08.411Z,13.90
2022-09-11T14:48:39.031Z,14.00
2022-09-11T14:51:12.778Z,14.00
2022-09-11T14:53:43.539Z,14.00
2022-09-11T14:56:12.064Z,14.00
2022-09-11T14:58:40.459Z,14.00
2022-09-11T15:01:13.621Z,14.00
2022-09-11T15:03:42.075Z,14.00
2022-09-11T15:06:15.662Z,13.90
2022-09-11T15:08:45.057Z,13.80
2022-09-11T15:11:13.482Z,13.70
2022-09-11T15:14:03.975Z,13.60
2022-09-11T15:16:31.952Z,13.60
2022-09-11T15:19:00.249Z,13.50
2022-09-11T15:21:31.220Z,13.50
2022-09-11T15:24:05.910Z,13.40
2022-09-11T15:26:34.983Z,13.40
2022-09-11T15:29:03.304Z,13.10
2022-09-11T15:31:48.050Z,12.90
2022-09-11T15:34:20.053Z,12.70
2022-09-11T15:36:51.685Z,12.50
2022-09-11T15:39:24.476Z,12.40
2022-09-11T15:41:56.469Z,12.40
2022-09-11T15:44:27.286Z,12.20
2022-09-11T15:46:59.039Z,12.00
2022-09-11T15:49:29.489Z,12.00
2022-09-11T15:51:59.757Z,11.80
2022-09-11T15:54:29.660Z,11.80
2022-09-11T15:56:59.142Z,11.70
2022-09-11T15:59:27.270Z,11.60
2022-09-11T16:01:57.328Z,11.50
2022-09-11T16:04:28.703Z,11.40
2022-09-11T16:07:00.794Z,11.40
2022-09-11T16:09:42.593Z,11.50
2022-09-11T16:12:21.407Z,11.40
2022-09-11T16:14:50.480Z,11.20
2022-09-11T16:17:21.858Z,11.20
2022-09-11T16:19:50.432Z,11.10
2022-09-11T16:22:23.913Z,11.10
2022-09-11T16:24:54.671Z,11.20
2022-09-11T16:27:30.004Z,11.00
2022-09-11T16:30:39.590Z,10.90
2022-09-11T16:32:52.667Z,11.00
2022-09-11T16:35:27.683Z,11.00
2022-09-11T16:37:58.182Z,10.90
2022-09-11T16:40:29.701Z,10.80
2022-09-11T16:42:58.781Z,10.80
2022-09-11T16:45:29.220Z,10.80
2022-09-11T16:48:06.712Z,10.80
2022-09-11T16:50:38.452Z,10.80
2022-09-11T16:53:06.947Z,10.80
2022-09-11T16:55:39.679Z,10.70
2022-09-11T16:58:10.833Z,10.70
2022-09-11T17:00:43.668Z,10.70
2022-09-11T17:03:16.391Z,10.70
2022-09-11T17:05:48.639Z,10.70
2022-09-11T17:08:17.657Z,10.70
2022-09-11T17:10:48.496Z,10.70
2022-09-11T17:13:21.858Z,10.50
2022-09-11T17:15:50.859Z,10.60
2022-09-11T17:18:20.802Z,10.50
2022-09-11T17:21:05.094Z,10.70
2022-09-11T17:23:44.250Z,10.60
2022-09-11T17:26:21.649Z,10.60
2022-09-11T17:28:54.524Z,10.60
2022-09-11T17:31:23.274Z,10.50
2022-09-11T17:34:11.953Z,10.60
2022-09-11T17:36:43.461Z,10.70
2022-09-11T17:39:13.515Z,10.60
2022-09-11T17:41:49.103Z,10.60
2022-09-11T17:44:25.025Z,10.50
2022-09-11T17:46:59.869Z,10.50
2022-09-11T17:49:31.238Z,10.60
2022-09-11T17:52:00.262Z,10.50
2022-09-11T17:54:37.093Z,10.50
2022-09-11T17:57:07.031Z,10.50
2022-09-11T17:59:36.845Z,10.50
2022-09-11T18:02:05.466Z,10.40
2022-09-11T18:04:45.720Z,10.40
2022-09-11T18:07:24.574Z,10.40
2022-09-11T18:09:59.535Z,10.40
2022-09-11T18:12:43.956Z,10.50
2022-09-11T18:15:16.777Z,10.20
2022-09-11T18:17:48.342Z,10.30
2022-09-11T18:20:24.259Z,10.30
2022-09-11T18:22:59.658Z,10.50
2022-09-11T18:25:40.645Z,10.30
2022-09-11T18:28:17.025Z,10.30
2022-09-11T18:30:49.986Z,10.40
2022-09-11T18:33:21.878Z,10.30
2022-09-11T18:35:57.640Z,10.30
2022-09-11T18:38:33.155Z,10.30
2022-09-11T18:41:09.525Z,10.30
2022-09-11T18:44:00.086Z,10.30
2022-09-11T18:46:40.355Z,10.30
2022-09-11T18:49:14.357Z,10.40
2022-09-11T18:52:04.550Z,10.30
2022-09-11T18:54:43.626Z,10.30
2022-09-11T18:57:16.726Z,10.40
2022-09-11T18:59:49.038Z,10.50
2022-09-11T19:02:21.217Z,10.50
2022-09-11T19:05:00.083Z,10.40
2022-09-11T19:07:40.677Z,10.20
2022-09-11T19:10:15.687Z,10.30
2022-09-11T19:12:54.306Z,10.20
2022-09-11T19:15:28.403Z,10.30
2022-09-11T19:18:01.703Z,10.30
2022-09-11T19:20:36.488Z,10.40
2022-09-11T19:23:06.341Z,10.40
2022-09-11T19:25:36.482Z,10.30
2022-09-11T19:28:11.571Z,10.30
2022-09-11T19:30:43.036Z,10.30
2022-09-11T19:33:11.853Z,10.30
2022-09-11T19:35:44.113Z,10.40
2022-09-11T19:38:39.547Z,10.30
2022-09-11T19:41:09.261Z,10.30
2022-09-11T19:43:39.882Z,10.40
2022-09-11T19:46:10.550Z,10.30
2022-09-11T19:48:45.579Z,10.30
2022-09-11T19:51:19.893Z,10.40
2022-09-11T19:54:00.846Z,10.40
2022-09-11T19:56:32.998Z,10.40
2022-09-11T19:59:03.827Z,10.40
2022-09-11T20:01:33.175Z,10.40
2022-09-11T20:04:29.369Z,10.40
2022-09-11T20:07:03.923Z,10.40
2022-09-11T20:09:48.658Z,10.40
2022-09-11T20:12:17.409Z,10.40
2022-09-11T20:14:48.531Z,10.40
2022-09-11T20:17:23.033Z,10.50
2022-09-11T20:19:54.265Z,10.40
2022-09-11T20:22:27.655Z,10.50
2022-09-11T20:25:01.193Z,10.50
2022-09-11T20:27:33.993Z,10.50
2022-09-11T20:30:02.626Z,10.40
2022-09-11T20:32:38.920Z,10.50
2022-09-11T20:35:08.168Z,10.50
2022-09-11T20:37:37.241Z,10.40
2022-09-11T20:40:12.846Z,10.40
2022-09-11T20:42:41.845Z,10.60
2022-09-11T20:45:25.292Z,10.50
2022-09-11T20:47:54.678Z,10.40
2022-09-11T20:50:23.137Z,10.40
2022-09-11T20:52:51.603Z,10.50
2022-09-11T20:55:23.590Z,10.40
2022-09-11T20:57:52.148Z,10.40
2022-09-11T21:00:22.645Z,10.40
2022-09-11T21:02:51.153Z,10.40
2022-09-11T21:05:20.848Z,10.40
2022-09-11T21:07:51.671Z,10.40
2022-09-11T21:10:23.424Z,10.40
2022-09-11T21:12:53.899Z,10.50
2022-09-11T21:15:24.322Z,10.50
2022-09-11T21:17:52.747Z,10.40
2022-09-11T21:20:23.008Z,10.40
2022-09-11T21:22:51.733Z,10.40
2022-09-11T21:25:22.910Z,10.40
2022-09-11T21:27:51.539Z,10.30
2022-09-11T21:30:19.958Z,10.40
2022-09-11T21:32:48.395Z,10.40
2022-09-11T21:35:17.117Z,10.50
2022-09-11T21:37:45.995Z,10.40
2022-09-11T21:40:14.530Z,10.40
2022-09-11T21:42:44.635Z,10.40
2022-09-11T21:45:12.980Z,10.40
2022-09-11T21:47:41.385Z,10.40
2022-09-11T21:50:10.546Z,10.50
2022-09-11T21:52:41.586Z,10.50
2022-09-11T21:55:11.571Z,10.40
2022-09-11T21:57:39.916Z,10.50
2022-09-11T22:00:12.033Z,10.50
2022-09-11T22:02:40.674Z,10.40
2022-09-11T22:05:12.553Z,10.50
2022-09-11T22:07:41.290Z,10.50
2022-09-11T22:10:14.960Z,10.40
